Time;durP1;ratioP1;P1;durP2;ratioP2;P2;SDS_P1;SDS_P2;PMS_P1;PMS_P2;Temp;Humidity;BMP_temperature;BMP_pressure;BME280_temperature;BME280_humidity;BME280_pressure;Samples;Min_cycle;Max_cycle;Signal;HPM_P1;HPM_P2
2022/11/02 00:01:09;;;;;;;48.70;29.60;;;;;;;;;;5015322;28;20030;-85
2022/11/02 00:03:35;;;;;;;44.13;26.92;;;;;;;;;;5014050;28;20049;-84
2022/11/02 00:06:01;;;;;;;36.17;24.50;;;;;;;;;;5013749;28;20471;-83
2022/11/02 00:08:27;;;;;;;42.60;27.05;;;;;;;;;;5013963;28;20018;-83
2022/11/02 00:10:53;;;;;;;46.33;26.58;;;;;;;;;;5013314;28;20037;-82
2022/11/02 00:13:19;;;;;;;46.05;24.48;;;;;;;;;;5012079;28;20121;-84
2022/11/02 00:15:46;;;;;;;40.05;23.30;;;;;;;;;;4993892;28;20022;-82
2022/11/02 00:18:13;;;;;;;41.33;25.50;;;;;;;;;;4993401;28;20022;-84
2022/11/02 00:20:39;;;;;;;50.58;28.10;;;;;;;;;;4993821;28;20068;-83
2022/11/02 00:23:09;;;;;;;45.97;26.63;;;;;;;;;;4993659;28;20022;-83
2022/11/02 00:25:37;;;;;;;38.70;24.65;;;;;;;;;;4993822;28;20023;-82
2022/11/02 00:28:03;;;;;;;36.13;22.90;;;;;;;;;;4993875;28;20034;-84
2022/11/02 00:30:29;;;;;;;32.00;19.88;;;;;;;;;;4993767;28;20031;-83
2022/11/02 00:32:56;;;;;;;37.72;22.42;;;;;;;;;;4993405;28;20122;-83
2022/11/02 00:35:22;;;;;;;38.63;21.75;;;;;;;;;;4993697;28;20028;-84
2022/11/02 00:37:48;;;;;;;44.30;23.60;;;;;;;;;;4993566;28;20100;-83
2022/11/02 00:40:14;;;;;;;35.10;22.10;;;;;;;;;;4993623;28;20033;-85
2022/11/02 00:42:40;;;;;;;36.83;21.20;;;;;;;;;;4993643;28;20117;-85
2022/11/02 00:45:07;;;;;;;40.83;24.75;;;;;;;;;;4993375;28;20022;-84
2022/11/02 00:47:33;;;;;;;40.17;23.52;;;;;;;;;;4993804;28;20030;-85
2022/11/02 00:49:59;;;;;;;34.90;21.95;;;;;;;;;;4993491;28;20113;-84
2022/11/02 00:52:25;;;;;;;44.03;22.98;;;;;;;;;;4993362;28;20023;-84
2022/11/02 00:54:51;;;;;;;39.03;22.70;;;;;;;;;;4995088;28;20110;-83
2022/11/02 00:57:17;;;;;;;36.25;20.67;;;;;;;;;;4993372;28;20041;-85
2022/11/02 00:59:44;;;;;;;30.25;19.17;;;;;;;;;;4993186;28;20029;-84
2022/11/02 01:02:10;;;;;;;41.70;21.85;;;;;;;;;;4994324;28;20463;-84
2022/11/02 01:04:36;;;;;;;39.63;25.80;;;;;;;;;;4994481;28;20030;-85
2022/11/02 01:07:03;;;;;;;45.58;26.40;;;;;;;;;;4993083;28;20546;-86
2022/11/02 01:09:29;;;;;;;52.75;28.33;;;;;;;;;;4993423;28;20037;-85
2022/11/02 01:11:56;;;;;;;123.50;65.50;;;;;;;;;;4993225;28;20090;-84
2022/11/02 01:14:22;;;;;;;96.40;50.97;;;;;;;;;;4993183;28;20022;-85
2022/11/02 01:16:48;;;;;;;58.55;30.17;;;;;;;;;;4993364;28;20026;-85
2022/11/02 01:19:14;;;;;;;41.25;22.90;;;;;;;;;;4993448;28;20050;-85
2022/11/02 01:21:40;;;;;;;33.95;19.70;;;;;;;;;;4993294;28;20514;-85
2022/11/02 01:24:07;;;;;;;32.55;18.48;;;;;;;;;;4993430;28;20026;-84
2022/11/02 01:26:33;;;;;;;34.28;18.02;;;;;;;;;;4993290;28;20022;-84
2022/11/02 01:28:59;;;;;;;33.75;19.88;;;;;;;;;;4993191;28;20023;-86
2022/11/02 01:31:25;;;;;;;34.70;18.20;;;;;;;;;;4993227;28;20038;-85
2022/11/02 01:33:51;;;;;;;37.50;22.80;;;;;;;;;;4993619;28;20030;-86
2022/11/02 01:36:21;;;;;;;39.28;22.55;;;;;;;;;;4993433;28;20462;-86
2022/11/02 01:38:48;;;;;;;67.85;37.63;;;;;;;;;;4993288;28;20061;-86
2022/11/02 01:41:15;;;;;;;56.75;34.50;;;;;;;;;;4993647;28;20037;-86
2022/11/02 01:43:42;;;;;;;37.42;21.83;;;;;;;;;;4993852;28;20081;-86
2022/11/02 01:46:08;;;;;;;33.97;18.40;;;;;;;;;;4993771;28;20048;-87
2022/11/02 01:48:53;;;;;;;34.78;17.45;;;;;;;;;;4993189;28;20026;-86
2022/11/02 01:51:26;;;;;;;30.02;16.77;;;;;;;;;;4992900;28;20027;-86
2022/11/02 01:53:54;;;;;;;28.38;16.92;;;;;;;;;;4993398;28;20534;-86
2022/11/02 01:56:22;;;;;;;32.13;18.55;;;;;;;;;;4993079;28;20030;-86
2022/11/02 01:58:51;;;;;;;34.00;17.92;;;;;;;;;;4993179;28;20084;-86
2022/11/02 02:01:18;;;;;;;32.90;16.10;;;;;;;;;;4993181;28;20026;-88
2022/11/02 02:03:44;;;;;;;31.85;18.08;;;;;;;;;;4993375;28;20463;-86
2022/11/02 02:06:12;;;;;;;28.52;17.45;;;;;;;;;;4995024;28;20034;-86
2022/11/02 02:08:41;;;;;;;26.77;18.15;;;;;;;;;;4995285;28;20057;-85
2022/11/02 02:11:27;;;;;;;29.67;16.50;;;;;;;;;;4994926;28;20030;-86
2022/11/02 02:13:55;;;;;;;35.13;16.60;;;;;;;;;;4992990;28;20080;-87
2022/11/02 02:16:25;;;;;;;35.33;18.50;;;;;;;;;;4994024;28;20102;-89
2022/11/02 02:18:59;;;;;;;32.15;16.88;;;;;;;;;;4996651;28;20069;-87
2022/11/02 02:21:57;;;;;;;33.13;18.70;;;;;;;;;;4996830;28;20026;-86
2022/11/02 02:24:33;;;;;;;47.58;25.52;;;;;;;;;;4963327;28;20053;-88
2022/11/02 02:27:02;;;;;;;57.80;35.20;;;;;;;;;;4996118;28;20395;-88
2022/11/02 02:29:47;;;;;;;45.33;25.65;;;;;;;;;;4996029;28;20480;-87
2022/11/02 02:32:16;;;;;;;38.08;20.33;;;;;;;;;;4995804;28;20124;-88
2022/11/02 02:34:57;;;;;;;32.55;19.52;;;;;;;;;;4995780;28;20033;-86
2022/11/02 02:37:56;;;;;;;37.00;19.95;;;;;;;;;;4991808;28;20054;-87
2022/11/02 02:40:27;;;;;;;29.05;19.20;;;;;;;;;;4976037;28;20031;-85
2022/11/02 02:42:59;;;;;;;27.35;17.52;;;;;;;;;;4976510;28;20034;-87
2022/11/02 02:46:04;;;;;;;32.35;16.38;;;;;;;;;;4976391;28;20547;-87
2022/11/02 02:48:34;;;;;;;32.35;18.30;;;;;;;;;;4902387;29;20036;-87
2022/11/02 02:51:11;;;;;;;28.17;16.48;;;;;;;;;;4918057;29;20056;-86
2022/11/02 02:54:01;;;;;;;25.05;16.80;;;;;;;;;;4943859;28;20035;-86
2022/11/02 02:56:38;;;;;;;29.85;17.30;;;;;;;;;;4966324;28;20038;-86
2022/11/02 02:59:06;;;;;;;27.83;16.05;;;;;;;;;;4976029;28;20066;-87
2022/11/02 03:01:33;;;;;;;30.35;17.23;;;;;;;;;;4975968;28;20034;-86
2022/11/02 03:03:59;;;;;;;35.60;19.60;;;;;;;;;;4976050;28;20031;-87
2022/11/02 03:06:36;;;;;;;22.35;15.05;;;;;;;;;;4975884;28;20059;-87
2022/11/02 03:09:14;;;;;;;32.40;17.67;;;;;;;;;;4975787;28;20027;-86
2022/11/02 03:11:55;;;;;;;27.40;17.35;;;;;;;;;;4975777;28;20027;-87
2022/11/02 03:14:53;;;;;;;32.05;17.10;;;;;;;;;;4985345;28;20034;-88
2022/11/02 03:17:22;;;;;;;27.75;17.80;;;;;;;;;;4979876;28;20035;-86
2022/11/02 03:20:08;;;;;;;28.08;16.20;;;;;;;;;;4994413;28;20022;-86
2022/11/02 03:22:48;;;;;;;26.15;17.17;;;;;;;;;;4996520;28;20026;-87
2022/11/02 03:25:15;;;;;;;30.02;15.68;;;;;;;;;;4995007;28;20551;-88
2022/11/02 03:27:51;;;;;;;31.85;16.50;;;;;;;;;;4994627;28;20026;-86
2022/11/02 03:30:38;;;;;;;29.08;17.55;;;;;;;;;;4995851;28;20037;-87
2022/11/02 03:33:14;;;;;;;27.70;16.95;;;;;;;;;;4994754;28;20022;-86
2022/11/02 03:35:45;;;;;;;53.42;31.92;;;;;;;;;;4994744;28;20029;-86
2022/11/02 03:38:16;;;;;;;35.15;22.00;;;;;;;;;;4994698;28;20044;-86
2022/11/02 03:40:44;;;;;;;44.35;27.90;;;;;;;;;;4994556;28;20104;-87
2022/11/02 03:43:11;;;;;;;47.20;29.25;;;;;;;;;;4994520;28;20030;-87
2022/11/02 03:45:50;;;;;;;61.45;38.58;;;;;;;;;;4994854;28;20026;-86
2022/11/02 03:48:17;;;;;;;46.00;27.33;;;;;;;;;;4994599;28;20026;-87
2022/11/02 03:50:46;;;;;;;29.55;19.10;;;;;;;;;;4994640;28;20035;-86
2022/11/02 03:53:18;;;;;;;33.35;19.17;;;;;;;;;;4994742;28;20026;-86
2022/11/02 03:55:52;;;;;;;32.00;21.90;;;;;;;;;;4994330;28;20050;-86
2022/11/02 03:58:19;;;;;;;64.82;33.15;;;;;;;;;;4993586;28;20035;-86
2022/11/02 04:00:48;;;;;;;39.05;22.60;;;;;;;;;;4993945;28;20035;-86
2022/11/02 04:03:14;;;;;;;37.85;21.05;;;;;;;;;;4993534;28;20054;-86
2022/11/02 04:05:40;;;;;;;32.28;19.05;;;;;;;;;;4993928;28;20023;-86
2022/11/02 04:08:23;;;;;;;34.80;20.35;;;;;;;;;;4993908;28;20514;-87
2022/11/02 04:16:20;;;;;;;34.75;20.25;;;;;;;;;;4995487;28;20045;-87
2022/11/02 04:21:31;;;;;;;42.00;23.33;;;;;;;;;;4995310;28;20089;-88
2022/11/02 04:26:43;;;;;;;41.88;24.73;;;;;;;;;;4995457;28;20491;-86
2022/11/02 04:29:12;;;;;;;44.78;27.85;;;;;;;;;;4993741;28;20033;-87
2022/11/02 04:31:38;;;;;;;48.10;27.42;;;;;;;;;;4993848;28;20462;-86
2022/11/02 04:34:04;;;;;;;38.20;24.17;;;;;;;;;;4993745;28;20025;-86
2022/11/02 04:36:31;;;;;;;35.50;21.52;;;;;;;;;;4991725;28;20054;-87
2022/11/02 04:38:57;;;;;;;38.53;19.85;;;;;;;;;;4993288;28;20309;-88
2022/11/02 04:41:45;;;;;;;34.50;19.30;;;;;;;;;;4993352;28;20383;-88
2022/11/02 04:44:15;;;;;;;35.33;20.35;;;;;;;;;;4993551;28;20109;-87
2022/11/02 04:46:42;;;;;;;34.05;19.10;;;;;;;;;;4993901;28;20460;-88
2022/11/02 04:49:09;;;;;;;40.25;20.67;;;;;;;;;;4993748;28;20046;-86
2022/11/02 04:51:36;;;;;;;31.30;18.67;;;;;;;;;;4994730;28;20034;-86
2022/11/02 04:54:02;;;;;;;33.20;19.17;;;;;;;;;;4994088;28;20030;-87
2022/11/02 04:56:29;;;;;;;37.70;21.08;;;;;;;;;;4993673;28;20030;-86
2022/11/02 04:58:56;;;;;;;36.58;19.45;;;;;;;;;;4993093;28;20027;-87
2022/11/02 05:01:24;;;;;;;32.33;20.33;;;;;;;;;;4993541;28;20023;-86
2022/11/02 05:03:51;;;;;;;35.65;22.95;;;;;;;;;;4993529;28;20022;-86
2022/11/02 05:06:17;;;;;;;29.83;19.05;;;;;;;;;;4993511;28;20023;-88
2022/11/02 05:08:44;;;;;;;28.05;19.05;;;;;;;;;;4993772;28;20019;-86
2022/11/02 05:11:12;;;;;;;38.15;21.83;;;;;;;;;;4993447;28;20057;-86
2022/11/02 05:13:39;;;;;;;35.88;21.83;;;;;;;;;;4993366;28;20038;-87
2022/11/02 05:16:06;;;;;;;30.05;18.15;;;;;;;;;;4993291;28;20090;-88
2022/11/02 05:18:35;;;;;;;33.35;21.02;;;;;;;;;;4993017;28;20022;-87
2022/11/02 05:21:01;;;;;;;32.28;22.02;;;;;;;;;;4993266;28;20048;-86
2022/11/02 05:23:28;;;;;;;64.85;44.92;;;;;;;;;;4993132;28;20130;-87
2022/11/02 05:26:03;;;;;;;58.53;36.13;;;;;;;;;;4992955;28;20113;-86
2022/11/02 05:28:30;;;;;;;45.25;27.15;;;;;;;;;;4992994;28;20050;-86
2022/11/02 05:30:58;;;;;;;40.08;23.60;;;;;;;;;;4976995;28;20130;-86
2022/11/02 05:33:24;;;;;;;40.08;23.80;;;;;;;;;;4993001;28;20058;-86
2022/11/02 05:35:50;;;;;;;34.05;21.48;;;;;;;;;;4993092;28;20027;-87
2022/11/02 05:38:17;;;;;;;32.13;20.25;;;;;;;;;;4993568;28;20039;-87
2022/11/02 05:40:43;;;;;;;33.38;20.60;;;;;;;;;;4993432;28;20027;-87
2022/11/02 05:43:09;;;;;;;33.88;18.70;;;;;;;;;;4992523;28;20108;-88
2022/11/02 05:45:36;;;;;;;47.75;20.30;;;;;;;;;;4994470;28;20026;-87
2022/11/02 05:48:05;;;;;;;43.13;20.80;;;;;;;;;;4991802;28;20031;-86
2022/11/02 05:50:31;;;;;;;34.55;19.20;;;;;;;;;;4994080;28;20027;-86
2022/11/02 05:52:58;;;;;;;33.40;19.95;;;;;;;;;;4997196;28;20029;-89
2022/11/02 05:55:24;;;;;;;37.13;20.10;;;;;;;;;;4996794;28;20026;-87
2022/11/02 05:57:56;;;;;;;35.83;18.73;;;;;;;;;;4997251;28;20050;-88
2022/11/02 06:00:23;;;;;;;34.88;17.45;;;;;;;;;;4996715;28;20089;-88
2022/11/02 06:02:54;;;;;;;34.00;19.52;;;;;;;;;;4997045;28;20387;-88
2022/11/02 06:05:21;;;;;;;45.15;22.27;;;;;;;;;;4997009;28;20037;-87
2022/11/02 06:07:47;;;;;;;36.95;23.55;;;;;;;;;;4996512;28;20030;-88
2022/11/02 06:10:13;;;;;;;34.83;21.60;;;;;;;;;;4996919;28;20027;-88
2022/11/02 06:12:39;;;;;;;38.42;21.13;;;;;;;;;;4996820;28;20019;-87
2022/11/02 06:15:06;;;;;;;38.88;22.83;;;;;;;;;;5001685;28;20027;-87
2022/11/02 06:17:44;;;;;;;35.97;21.75;;;;;;;;;;5003997;28;20026;-87
2022/11/02 06:20:14;;;;;;;33.85;22.23;;;;;;;;;;5003225;28;20022;-88
2022/11/02 06:22:41;;;;;;;40.63;22.10;;;;;;;;;;5004298;28;20029;-87
2022/11/02 06:25:08;;;;;;;40.28;24.55;;;;;;;;;;5006811;28;20031;-88
2022/11/02 06:27:34;;;;;;;42.92;23.65;;;;;;;;;;5004387;28;20090;-87
2022/11/02 06:30:01;;;;;;;52.75;23.88;;;;;;;;;;4999341;28;20023;-87
2022/11/02 06:32:27;;;;;;;41.35;24.52;;;;;;;;;;5007033;28;20027;-88
2022/11/02 06:34:53;;;;;;;48.65;24.05;;;;;;;;;;5008338;28;20026;-88
2022/11/02 06:37:19;;;;;;;45.17;25.67;;;;;;;;;;5007703;28;20042;-87
2022/11/02 06:39:48;;;;;;;47.78;26.80;;;;;;;;;;5009402;28;20050;-88
2022/11/02 06:42:15;;;;;;;50.55;25.65;;;;;;;;;;5009113;28;20035;-88
2022/11/02 06:44:41;;;;;;;38.70;23.48;;;;;;;;;;4999912;28;20029;-89
2022/11/02 06:47:07;;;;;;;46.58;25.33;;;;;;;;;;4996643;28;20030;-88
2022/11/02 06:49:33;;;;;;;40.28;24.75;;;;;;;;;;4996156;28;20026;-88
2022/11/02 06:52:00;;;;;;;37.53;23.15;;;;;;;;;;4996818;28;20046;-88
2022/11/02 06:54:26;;;;;;;45.92;22.65;;;;;;;;;;4996777;28;20018;-88
2022/11/02 06:56:52;;;;;;;41.72;21.60;;;;;;;;;;4996413;28;20031;-88
2022/11/02 06:59:18;;;;;;;39.70;22.20;;;;;;;;;;4979554;28;20113;-88
2022/11/02 07:01:45;;;;;;;45.35;25.25;;;;;;;;;;4994953;28;20030;-88
2022/11/02 07:04:12;;;;;;;37.83;22.90;;;;;;;;;;4992870;28;20113;-88
2022/11/02 07:06:38;;;;;;;37.10;23.65;;;;;;;;;;4994768;28;20068;-89
2022/11/02 07:09:10;;;;;;;41.97;27.95;;;;;;;;;;4995657;28;20026;-89
2022/11/02 07:11:43;;;;;;;44.38;26.60;;;;;;;;;;4995597;28;20121;-88
2022/11/02 07:14:14;;;;;;;39.05;24.65;;;;;;;;;;4997227;28;20034;-89
2022/11/02 07:16:41;;;;;;;39.37;22.60;;;;;;;;;;4995540;28;20026;-88
2022/11/02 07:19:07;;;;;;;58.65;25.58;;;;;;;;;;4994260;28;20267;-88
2022/11/02 07:21:33;;;;;;;60.08;33.50;;;;;;;;;;4995124;28;20031;-86
2022/11/02 07:24:02;;;;;;;51.90;27.08;;;;;;;;;;4995296;28;20054;-88
2022/11/02 07:26:28;;;;;;;44.33;25.17;;;;;;;;;;4995107;28;20042;-87
2022/11/02 07:28:54;;;;;;;45.33;21.33;;;;;;;;;;4995165;28;20026;-85
2022/11/02 07:31:21;;;;;;;42.83;23.48;;;;;;;;;;4995098;28;20038;-87
2022/11/02 07:33:47;;;;;;;34.40;21.88;;;;;;;;;;4994857;28;20030;-86
2022/11/02 07:36:13;;;;;;;43.10;19.95;;;;;;;;;;4994992;28;20026;-86
2022/11/02 07:38:39;;;;;;;39.88;18.48;;;;;;;;;;4995023;28;20073;-86
2022/11/02 07:41:05;;;;;;;29.00;19.05;;;;;;;;;;4994927;28;20031;-86
2022/11/02 07:43:32;;;;;;;31.40;19.70;;;;;;;;;;4994475;28;20566;-86
2022/11/02 07:45:58;;;;;;;31.40;19.88;;;;;;;;;;4994181;28;20065;-87
2022/11/02 07:48:24;;;;;;;32.80;19.38;;;;;;;;;;4994486;28;20034;-86
2022/11/02 07:50:50;;;;;;;35.13;18.88;;;;;;;;;;4993962;28;20089;-87
2022/11/02 07:53:16;;;;;;;43.47;27.05;;;;;;;;;;4993964;28;20026;-86
2022/11/02 07:55:42;;;;;;;39.72;23.10;;;;;;;;;;4994460;28;20375;-84
2022/11/02 07:58:14;;;;;;;36.20;23.25;;;;;;;;;;4995669;28;20096;-84
2022/11/02 08:00:41;;;;;;;56.15;35.60;;;;;;;;;;4995074;28;20105;-86
2022/11/02 08:03:09;;;;;;;54.25;33.40;;;;;;;;;;4995612;28;20022;-84
2022/11/02 08:05:36;;;;;;;64.22;36.08;;;;;;;;;;4995329;28;20030;-84
2022/11/02 08:08:03;;;;;;;62.03;37.78;;;;;;;;;;4994030;28;20105;-84
2022/11/02 08:10:30;;;;;;;51.55;31.00;;;;;;;;;;4993918;28;20510;-83
2022/11/02 08:12:57;;;;;;;43.75;24.95;;;;;;;;;;4993516;28;20026;-82
2022/11/02 08:15:23;;;;;;;40.05;23.92;;;;;;;;;;4991877;28;20022;-83
2022/11/02 08:18:19;;;;;;;39.33;24.90;;;;;;;;;;4991592;28;20029;-82
2022/11/02 08:20:45;;;;;;;34.05;22.00;;;;;;;;;;4972800;28;20052;-81
2022/11/02 08:23:12;;;;;;;36.67;21.27;;;;;;;;;;4992177;28;20029;-85
2022/11/02 08:25:39;;;;;;;32.65;20.60;;;;;;;;;;4993536;28;20046;-81
2022/11/02 08:28:06;;;;;;;39.28;19.58;;;;;;;;;;4993474;28;20077;-83
2022/11/02 08:30:33;;;;;;;29.65;17.80;;;;;;;;;;4993662;28;20038;-82
2022/11/02 08:33:04;;;;;;;24.15;15.88;;;;;;;;;;4993868;28;20030;-83
2022/11/02 08:35:30;;;;;;;26.95;15.60;;;;;;;;;;4994988;28;20033;-82
2022/11/02 08:37:56;;;;;;;32.72;19.10;;;;;;;;;;4993052;28;20129;-85
2022/11/02 08:40:23;;;;;;;48.90;26.30;;;;;;;;;;4993425;28;20023;-81
2022/11/02 08:42:49;;;;;;;43.88;24.48;;;;;;;;;;4992829;28;20026;-82
2022/11/02 08:45:16;;;;;;;39.80;20.63;;;;;;;;;;4994283;28;20015;-80
2022/11/02 08:47:42;;;;;;;37.45;18.92;;;;;;;;;;4992771;28;20019;-80
2022/11/02 08:50:09;;;;;;;28.02;16.88;;;;;;;;;;4992781;28;20471;-81
2022/11/02 08:52:36;;;;;;;33.53;18.08;;;;;;;;;;4993030;28;20426;-82
2022/11/02 08:55:02;;;;;;;31.98;16.92;;;;;;;;;;4992533;28;20046;-82
2022/11/02 08:57:28;;;;;;;32.17;16.75;;;;;;;;;;4993029;28;20037;-81
2022/11/02 08:59:54;;;;;;;35.17;15.60;;;;;;;;;;4993899;28;20019;-81
2022/11/02 09:02:20;;;;;;;30.40;15.85;;;;;;;;;;4992783;28;20034;-84
2022/11/02 09:04:46;;;;;;;30.98;15.00;;;;;;;;;;4992969;28;20023;-81
2022/11/02 09:07:12;;;;;;;31.00;16.25;;;;;;;;;;4992986;28;20023;-80
2022/11/02 09:09:38;;;;;;;34.45;16.55;;;;;;;;;;4992733;28;20607;-82
2022/11/02 09:12:05;;;;;;;27.52;14.65;;;;;;;;;;4994447;28;20034;-82
2022/11/02 09:14:31;;;;;;;28.02;14.73;;;;;;;;;;4994566;28;20033;-80
2022/11/02 09:16:57;;;;;;;22.35;12.93;;;;;;;;;;4992922;28;20383;-83
2022/11/02 09:19:23;;;;;;;22.38;13.00;;;;;;;;;;4993144;28;20026;-81
2022/11/02 09:21:50;;;;;;;21.50;11.90;;;;;;;;;;4993196;28;20373;-82
2022/11/02 09:24:16;;;;;;;20.55;11.43;;;;;;;;;;4992937;28;20105;-84
2022/11/02 09:26:42;;;;;;;26.33;12.70;;;;;;;;;;4996487;28;20030;-82
2022/11/02 09:29:08;;;;;;;22.55;12.18;;;;;;;;;;4997154;28;20526;-82
2022/11/02 09:31:34;;;;;;;20.38;12.48;;;;;;;;;;4996817;28;20042;-83
2022/11/02 09:34:00;;;;;;;22.98;12.45;;;;;;;;;;4997077;28;20022;-82
2022/11/02 09:36:26;;;;;;;25.15;14.00;;;;;;;;;;4996640;28;20035;-79
2022/11/02 09:38:52;;;;;;;27.55;14.23;;;460.90;2380.80;;;;;;4996371;28;20459;-80
2022/11/02 09:41:31;;;;;;;30.48;17.50;;;460.80;2380.80;;;;;;4996896;28;20116;-83
2022/11/02 09:44:03;;;;;;;33.33;20.38;;;461.00;2380.80;;;;;;4996406;28;20034;-83
2022/11/02 09:46:29;;;;;;;23.02;13.13;;;;;;;;;;4996865;28;20023;-83
2022/11/02 09:48:59;;;;;;;31.67;14.70;;;461.10;2380.80;;;;;;4997873;28;20045;-82
2022/11/02 09:51:36;;;;;;;28.80;14.27;;;461.00;2380.80;;;;;;4996523;28;20062;-82
2022/11/02 09:54:14;;;;;;;26.45;12.20;;;461.10;2380.80;;;;;;4996509;28;20037;-83
2022/11/02 09:56:41;;;;;;;21.80;12.60;;;461.50;2380.80;;;;;;4996170;28;20029;-80
2022/11/02 09:59:20;;;;;;;27.70;15.27;;;461.50;2380.80;;;;;;4995965;28;20034;-82
2022/11/02 10:01:54;;;;;;;27.10;14.88;;;461.50;2380.80;;;;;;4994240;28;20108;-81
2022/11/02 10:04:38;;;;;;;27.75;14.18;;;461.50;2380.80;;;;;;4996008;28;20038;-82
2022/11/02 10:07:07;;;;;;;25.95;14.93;;;461.60;2380.80;;;;;;4995165;28;20134;-82
2022/11/02 10:09:44;;;;;;;27.38;15.73;;;461.70;2380.80;;;;;;4996211;28;20030;-80
2022/11/02 10:12:37;;;;;;;29.23;15.15;;;486.60;2380.80;;;;;;4997117;28;20053;-82
2022/11/02 10:15:19;;;;;;;22.80;12.73;;;486.60;2380.80;;;;;;4996265;28;20030;-82
2022/11/02 10:17:47;;;;;;;21.80;11.50;;;486.60;2380.80;;;;;;4996191;28;20084;-80
2022/11/02 10:20:43;;;;;;;26.67;14.77;;;486.60;2380.80;;;;;;4996123;28;20441;-81
2022/11/02 10:23:25;;;;;;;23.58;13.68;;;486.80;2380.80;;;;;;4971138;28;20038;-83
2022/11/02 10:25:52;;;;;;;34.67;18.80;;;487.00;2380.80;;;;;;4996491;28;20031;-80
2022/11/02 10:28:24;;;;;;;26.40;13.63;;;486.70;2380.80;;;;;;4995274;28;20549;-80
2022/11/02 10:30:52;;;;;;;23.90;13.85;;;512.00;2380.80;;;;;;4997063;28;20030;-81
2022/11/02 10:33:21;;;;;;;24.73;14.90;;;;;;;;;;4978862;28;20510;-83
2022/11/02 10:35:58;;;;;;;24.77;13.23;;;512.40;2380.80;;;;;;4990691;28;20026;-82
2022/11/02 10:38:35;;;;;;;24.65;12.90;;;512.40;2380.80;;;;;;4994677;28;20057;-82
2022/11/02 10:41:22;;;;;;;18.25;10.68;;;512.40;2380.80;;;;;;4995412;28;20073;-82
2022/11/02 10:44:23;;;;;;;22.95;11.00;;;512.60;2380.80;;;;;;4995438;28;20030;-79
2022/11/02 10:47:16;;;;;;;27.25;11.80;;;512.70;2380.80;;;;;;4994285;28;20023;-81
2022/11/02 10:49:48;;;;;;;29.63;13.07;;;512.80;2380.80;;;;;;4993308;28;20077;-82
2022/11/02 10:52:16;;;;;;;30.77;13.00;;;;;;;;;;4995177;28;20035;-80
2022/11/02 10:54:42;;;;;;;20.92;11.63;;;537.90;2355.20;;;;;;4996602;28;20106;-81
2022/11/02 10:57:21;;;;;;;25.42;12.30;;;538.00;2355.20;;;;;;4995593;28;20482;-81
2022/11/02 11:00:21;;;;;;;24.58;11.43;;;538.40;2304.00;;;;;;4996041;28;20384;-81
2022/11/02 11:03:01;;;;;;;22.65;10.80;;;;;;;;;;4995400;28;20034;-83
2022/11/02 11:05:27;;;;;;;22.65;11.45;;;563.20;2304.00;;;;;;4995352;28;20428;-80
2022/11/02 11:07:53;;;;;;;23.27;12.02;;;563.30;2278.40;;;;;;4995143;28;20033;-81
2022/11/02 11:10:19;;;;;;;23.33;14.25;;;;;;;;;;4994827;28;20026;-83
2022/11/02 11:12:45;;;;;;;21.67;10.48;;;;;;;;;;4997790;28;20121;-82
2022/11/02 11:15:41;;;;;;;20.25;9.90;;;;;;;;;;5001420;28;20022;-82
2022/11/02 11:18:12;;;;;;;27.90;11.55;;;;;;;;;;4984526;28;20093;-83
2022/11/02 11:20:39;;;;;;;28.35;10.88;;;;;;;;;;4995229;28;20038;-82
2022/11/02 11:23:17;;;;;;;20.88;9.20;;;;;;;;;;4994837;28;20029;-83
2022/11/02 11:25:53;;;;;;;19.65;9.40;;;;;;;;;;4995176;28;20026;-84
2022/11/02 11:28:22;;;;;;;21.08;10.65;;;;;;;;;;4995556;28;20018;-83
2022/11/02 11:30:50;;;;;;;18.58;9.50;;;;;;;;;;4995192;28;20034;-85
2022/11/02 11:33:19;;;;;;;15.60;8.95;;;;;;;;;;4995075;28;20023;-83
2022/11/02 11:35:48;;;;;;;19.60;9.02;;;;;;;;;;4993914;28;20022;-82
2022/11/02 11:38:16;;;;;;;22.50;9.55;;;;;;;;;;4976034;28;20050;-83
2022/11/02 11:40:48;;;;;;;25.13;10.68;;;;;;;;;;4991009;28;20026;-82
2022/11/02 11:43:17;;;;;;;26.38;10.73;;;;;;;;;;4990155;28;20141;-81
2022/11/02 11:45:57;;;;;;;20.67;11.23;;;;;;;;;;4990892;28;20061;-83
2022/11/02 11:48:28;;;;;;;19.70;10.05;;;;;;;;;;4992356;28;20030;-83
2022/11/02 11:50:54;;;;;;;26.05;10.13;;;;;;;;;;4993814;28;20033;-82
2022/11/02 11:53:24;;;;;;;22.23;10.00;;;;;;;;;;4994393;28;20117;-84
2022/11/02 11:56:00;;;;;;;22.65;11.80;;;;;;;;;;4974990;28;20093;-84
2022/11/02 11:58:33;;;;;;;20.35;9.50;;;;;;;;;;4993345;28;20542;-83
2022/11/02 12:01:02;;;;;;;20.98;10.52;;;;;;;;;;4992811;28;20041;-83
2022/11/02 12:03:29;;;;;;;17.63;10.05;;;;;;;;;;4995543;28;20491;-84
2022/11/02 12:05:55;;;;;;;22.92;11.95;;;;;;;;;;4994224;28;20018;-83
2022/11/02 12:08:41;;;;;;;14.98;8.77;;;;;;;;;;4993831;28;20022;-83
2022/11/02 12:11:12;;;;;;;20.98;10.32;;;;;;;;;;4991833;28;20379;-83
2022/11/02 12:13:47;;;;;;;26.48;12.10;;;;;;;;;;4993772;28;20679;-83
2022/11/02 12:16:19;;;;;;;29.23;13.65;;;;;;;;;;4993823;28;20117;-84
2022/11/02 12:19:03;;;;;;;19.63;11.63;;;;;;;;;;4994019;28;20498;-84
2022/11/02 12:21:33;;;;;;;17.50;8.20;;;;;;;;;;4993657;28;20463;-83
2022/11/02 12:24:38;;;;;;;19.83;9.23;;;666.40;1843.20;;;;;;4993842;28;20495;-83
2022/11/02 12:27:20;;;;;;;19.20;10.65;;;666.30;1817.60;;;;;;4946562;28;20073;-83
2022/11/02 12:30:01;;;;;;;;;;;666.20;1843.20;;;;;;4996418;28;20033;-79
2022/11/02 12:33:10;;;;;;;19.08;10.20;;;666.20;1817.60;;;;;;4994359;28;19949;-82
2022/11/02 12:36:00;;;;;;;28.27;13.48;;;666.30;1817.60;;;;;;4993479;28;20034;-80
2022/11/02 12:38:32;;;;;;;25.77;15.13;;;666.40;1792.00;;;;;;4993526;28;20100;-81
2022/11/02 12:41:00;;;;;;;27.10;11.70;;;666.50;1817.60;;;;;;4993112;28;20046;-82
2022/11/02 12:43:44;;;;;;;24.63;11.85;;;666.50;1766.40;;;;;;4993204;28;20084;-81
2022/11/02 12:46:42;;;;;;;23.55;11.57;;;666.50;1792.00;;;;;;4993038;28;20037;-81
2022/11/02 12:49:07;;;;;;;17.65;8.10;;;691.20;1766.40;;;;;;4993686;28;20031;-83
2022/11/02 12:51:35;;;;;;;24.77;8.18;;;666.30;1740.80;;;;;;4993846;28;20031;-83
2022/11/02 12:54:14;;;;;;;23.70;9.52;;;666.30;1766.40;;;;;;4993513;28;20034;-83
2022/11/02 12:56:50;;;;;;;22.08;10.77;;;666.30;1792.00;;;;;;4993459;28;20045;-83
2022/11/02 12:59:28;;;;;;;20.85;9.77;;;666.30;1792.00;;;;;;4993503;28;20026;-83
2022/11/02 13:02:10;;;;;;;21.88;10.73;;;666.20;1740.80;;;;;;4993368;28;20471;-84
2022/11/02 13:04:45;;;;;;;21.38;10.55;;;666.00;1766.40;;;;;;4993294;28;20114;-79
2022/11/02 13:07:16;;;;;;;19.73;11.30;;;665.90;1792.00;;;;;;4992711;28;20089;-80
2022/11/02 13:10:05;;;;;;;24.15;12.35;;;665.60;1817.60;;;;;;4993139;28;20380;-80
2022/11/02 13:12:35;;;;;;;20.75;11.38;;;640.90;1817.60;;;;;;4993401;28;20082;-80
2022/11/02 13:15:02;;;;;;;17.60;9.90;;;;;;;;;;4992696;28;20030;-81
2022/11/02 13:17:33;;;;;;;18.33;9.25;;;;;;;;;;4992514;28;20022;-79
2022/11/02 13:20:11;;;;;;;17.92;9.15;;;;;;;;;;4992928;28;20111;-79
2022/11/02 13:22:39;;;;;;;22.00;9.90;;;;;;;;;;4992670;28;20460;-81
2022/11/02 13:25:17;;;;;;;22.38;11.32;;;;;;;;;;4994586;28;20102;-80
2022/11/02 13:27:53;;;;;;;21.38;10.35;;;;;;;;;;4992855;28;20026;-79
2022/11/02 13:30:20;;;;;;;22.48;11.52;;;;;;;;;;4992469;28;20019;-81
2022/11/02 13:33:00;;;;;;;22.02;10.13;;;;;;;;;;4992210;28;20026;-80
2022/11/02 13:35:31;;;;;;;23.45;9.90;;;;;;;;;;4991067;28;20026;-79
2022/11/02 13:38:01;;;;;;;18.50;9.88;;;;;;;;;;4992718;28;20054;-78
2022/11/02 13:40:35;;;;;;;29.30;10.65;;;;;;;;;;4994074;28;20033;-79
2022/11/02 13:43:08;;;;;;;17.92;8.98;;;;;;;;;;4990801;28;20023;-78
2022/11/02 13:45:40;;;;;;;28.50;10.20;;;;;;;;;;4992966;28;20027;-80
2022/11/02 13:48:06;;;;;;;;;;;;;;;;;;4993247;28;20015;-81
2022/11/02 13:50:34;;;;;;;25.27;10.05;;;;;;;;;;4992462;28;20382;-80
2022/11/02 13:53:04;;;;;;;15.02;9.18;;;;;;;;;;4992699;28;20030;-78
2022/11/02 13:55:42;;;;;;;42.17;9.85;;;;;;;;;;4992353;28;20030;-79
2022/11/02 13:58:35;;;;;;;28.92;8.52;;;665.80;1817.60;;;;;;4992510;28;20026;-79
2022/11/02 14:01:06;;;;;;;24.70;9.02;;;665.60;1766.40;;;;;;4991625;28;20070;-80
2022/11/02 14:03:43;;;;;;;21.40;9.45;;;640.70;1715.20;;;;;;4993571;28;20034;-79
2022/11/02 14:06:11;;;;;;;24.35;10.88;;;640.30;1740.80;;;;;;4993415;28;20045;-79
2022/11/02 14:08:40;;;;;;;27.35;13.02;;;;;;;;;;4992707;28;20173;-80
2022/11/02 14:11:09;;;;;;;43.45;13.13;;;615.00;1817.60;;;;;;4993877;28;20424;-81
2022/11/02 14:14:08;;;;;;;39.88;14.82;;;614.60;1843.20;;;;;;4996464;28;20030;-82
2022/11/02 14:16:49;;;;;;;35.80;13.20;;;589.70;1894.40;;;;;;4995967;28;20432;-83
2022/11/02 14:19:15;;;;;;;26.55;12.10;;;589.70;1894.40;;;;;;4976807;28;20031;-83
2022/11/02 14:21:49;;;;;;;29.23;12.05;;;589.50;1971.20;;;;;;4977394;28;20042;-81
2022/11/02 14:24:36;;;;;;;38.13;12.27;;;589.40;1945.60;;;;;;4978128;28;20063;-82